sensor_id;sensor_type;location;lat;lon;timestamp;P1;durP1;ratioP1;P2;durP2;ratioP2
40248;SDS011;25969;49.970;11.062;2022-08-19T04:18:31;23.75;;;17.83;;
40248;SDS011;25969;49.970;11.062;2022-08-19T04:28:34;34.28;;;23.92;;
40248;SDS011;25969;49.970;11.062;2022-08-19T04:38:36;41.38;;;26.60;;
40248;SDS011;25969;49.970;11.062;2022-08-19T04:48:37;35.90;;;24.13;;
40248;SDS011;25969;49.970;11.062;2022-08-19T04:58:40;37.83;;;25.48;;
40248;SDS011;25969;49.970;11.062;2022-08-19T05:08:43;39.53;;;26.73;;
40248;SDS011;25969;49.970;11.062;2022-08-19T05:18:44;38.97;;;26.38;;
40248;SDS011;25969;49.970;11.062;2022-08-19T05:29:04;43.05;;;27.27;;
40248;SDS011;25969;49.970;11.062;2022-08-19T05:39:06;47.35;;;28.27;;
40248;SDS011;25969;49.970;11.062;2022-08-19T05:49:09;45.67;;;28.27;;
40248;SDS011;25969;49.970;11.062;2022-08-19T05:59:10;46.17;;;28.88;;
40248;SDS011;25969;49.970;11.062;2022-08-19T06:09:11;36.05;;;24.35;;
40248;SDS011;25969;49.970;11.062;2022-08-19T06:29:16;34.75;;;23.75;;
40248;SDS011;25969;49.970;11.062;2022-08-19T06:39:20;30.55;;;21.73;;
40248;SDS011;25969;49.970;11.062;2022-08-19T06:49:24;27.58;;;20.35;;
40248;SDS011;25969;49.970;11.062;2022-08-19T06:59:31;30.23;;;20.92;;
40248;SDS011;25969;49.970;11.062;2022-08-19T07:09:33;28.63;;;22.10;;
40248;SDS011;25969;49.970;11.062;2022-08-19T07:19:38;28.83;;;21.55;;
40248;SDS011;25969;49.970;11.062;2022-08-19T07:29:39;29.33;;;20.60;;
40248;SDS011;25969;49.970;11.062;2022-08-19T07:39:40;36.03;;;23.80;;
40248;SDS011;25969;49.970;11.062;2022-08-19T07:49:40;35.03;;;23.55;;
40248;SDS011;25969;49.970;11.062;2022-08-19T07:59:42;29.20;;;21.40;;
40248;SDS011;25969;49.970;11.062;2022-08-19T08:09:43;26.02;;;20.25;;
40248;SDS011;25969;49.970;11.062;2022-08-19T08:19:45;30.35;;;21.38;;
40248;SDS011;25969;49.970;11.062;2022-08-19T08:29:46;29.45;;;22.42;;
40248;SDS011;25969;49.970;11.062;2022-08-19T08:39:49;27.05;;;20.77;;
40248;SDS011;25969;49.970;11.062;2022-08-19T08:50:00;26.23;;;18.52;;
40248;SDS011;25969;49.970;11.062;2022-08-19T09:00:19;24.80;;;17.25;;
40248;SDS011;25969;49.970;11.062;2022-08-19T09:20:59;23.13;;;16.23;;
40248;SDS011;25969;49.970;11.062;2022-08-19T09:31:00;20.30;;;15.73;;
40248;SDS011;25969;49.970;11.062;2022-08-19T09:41:04;21.75;;;15.63;;
40248;SDS011;25969;49.970;11.062;2022-08-19T09:51:14;17.85;;;14.00;;
40248;SDS011;25969;49.970;11.062;2022-08-19T10:01:20;21.38;;;14.15;;
40248;SDS011;25969;49.970;11.062;2022-08-19T10:11:23;19.30;;;14.40;;
40248;SDS011;25969;49.970;11.062;2022-08-19T10:21:25;19.95;;;14.93;;
40248;SDS011;25969;49.970;11.062;2022-08-19T10:31:29;19.30;;;14.13;;
40248;SDS011;25969;49.970;11.062;2022-08-19T10:41:33;20.45;;;14.32;;
40248;SDS011;25969;49.970;11.062;2022-08-19T10:51:36;18.50;;;13.45;;
40248;SDS011;25969;49.970;11.062;2022-08-19T11:02:00;17.95;;;14.05;;
40248;SDS011;25969;49.970;11.062;2022-08-19T11:12:03;17.35;;;13.95;;
40248;SDS011;25969;49.970;11.062;2022-08-19T11:22:07;18.38;;;13.15;;
40248;SDS011;25969;49.970;11.062;2022-08-19T11:32:09;19.70;;;14.23;;
40248;SDS011;25969;49.970;11.062;2022-08-19T11:42:10;17.55;;;13.75;;
40248;SDS011;25969;49.970;11.062;2022-08-19T11:52:30;19.30;;;14.47;;
40248;SDS011;25969;49.970;11.062;2022-08-19T12:02:31;24.45;;;16.13;;
40248;SDS011;25969;49.970;11.062;2022-08-19T12:12:31;23.08;;;17.60;;
40248;SDS011;25969;49.970;11.062;2022-08-19T12:22:32;15.52;;;12.05;;
40248;SDS011;25969;49.970;11.062;2022-08-19T12:32:33;14.27;;;10.80;;
40248;SDS011;25969;49.970;11.062;2022-08-19T12:42:34;18.40;;;13.18;;
40248;SDS011;25969;49.970;11.062;2022-08-19T12:52:35;18.33;;;13.30;;
40248;SDS011;25969;49.970;11.062;2022-08-19T13:02:43;17.33;;;11.52;;
40248;SDS011;25969;49.970;11.062;2022-08-19T13:12:46;14.55;;;11.50;;
40248;SDS011;25969;49.970;11.062;2022-08-19T13:22:49;11.52;;;10.32;;
40248;SDS011;25969;49.970;11.062;2022-08-19T13:32:50;11.73;;;10.35;;
40248;SDS011;25969;49.970;11.062;2022-08-19T13:43:10;11.43;;;9.90;;
40248;SDS011;25969;49.970;11.062;2022-08-19T13:53:11;11.70;;;9.75;;
40248;SDS011;25969;49.970;11.062;2022-08-19T14:03:12;13.40;;;10.27;;
40248;SDS011;25969;49.970;11.062;2022-08-19T14:13:14;20.67;;;9.75;;
40248;SDS011;25969;49.970;11.062;2022-08-19T14:23:17;12.65;;;10.00;;
40248;SDS011;25969;49.970;11.062;2022-08-19T14:33:18;13.70;;;10.30;;
40248;SDS011;25969;49.970;11.062;2022-08-19T14:43:18;13.70;;;9.40;;
40248;SDS011;25969;49.970;11.062;2022-08-19T14:53:19;13.10;;;9.57;;
40248;SDS011;25969;49.970;11.062;2022-08-19T15:03:20;11.25;;;8.85;;
40248;SDS011;25969;49.970;11.062;2022-08-19T15:13:21;8.88;;;7.80;;
40248;SDS011;25969;49.970;11.062;2022-08-19T15:23:22;11.23;;;7.40;;
40248;SDS011;25969;49.970;11.062;2022-08-19T15:33:23;7.50;;;6.70;;
40248;SDS011;25969;49.970;11.062;2022-08-19T15:43:24;8.07;;;6.32;;
40248;SDS011;25969;49.970;11.062;2022-08-19T15:53:25;7.20;;;5.90;;
40248;SDS011;25969;49.970;11.062;2022-08-19T16:03:27;10.05;;;8.35;;
40248;SDS011;25969;49.970;11.062;2022-08-19T16:13:47;13.13;;;7.88;;
40248;SDS011;25969;49.970;11.062;2022-08-19T16:23:50;16.23;;;7.75;;
40248;SDS011;25969;49.970;11.062;2022-08-19T16:33:52;12.45;;;8.63;;
40248;SDS011;25969;49.970;11.062;2022-08-19T16:43:54;9.43;;;7.05;;
40248;SDS011;25969;49.970;11.062;2022-08-19T16:53:54;9.43;;;6.45;;
40248;SDS011;25969;49.970;11.062;2022-08-19T17:03:55;9.10;;;6.17;;
40248;SDS011;25969;49.970;11.062;2022-08-19T17:13:57;9.10;;;5.47;;
40248;SDS011;25969;49.970;11.062;2022-08-19T17:24:00;16.17;;;4.68;;
40248;SDS011;25969;49.970;11.062;2022-08-19T17:34:03;6.57;;;4.03;;
40248;SDS011;25969;49.970;11.062;2022-08-19T17:44:04;5.13;;;3.55;;
40248;SDS011;25969;49.970;11.062;2022-08-19T17:54:06;4.63;;;4.07;;
40248;SDS011;25969;49.970;11.062;2022-08-19T18:04:07;6.43;;;3.90;;
40248;SDS011;25969;49.970;11.062;2022-08-19T18:14:09;6.30;;;5.30;;
40248;SDS011;25969;49.970;11.062;2022-08-19T18:24:09;7.43;;;4.93;;
40248;SDS011;25969;49.970;11.062;2022-08-19T18:34:11;5.35;;;4.80;;
40248;SDS011;25969;49.970;11.062;2022-08-19T18:44:11;10.20;;;5.00;;
40248;SDS011;25969;49.970;11.062;2022-08-19T18:54:31;14.07;;;4.93;;
40248;SDS011;25969;49.970;11.062;2022-08-19T19:04:32;6.65;;;5.53;;
40248;SDS011;25969;49.970;11.062;2022-08-19T19:14:40;7.07;;;5.40;;
40248;SDS011;25969;49.970;11.062;2022-08-19T19:24:41;7.25;;;5.68;;
40248;SDS011;25969;49.970;11.062;2022-08-19T19:34:43;7.35;;;6.35;;
40248;SDS011;25969;49.970;11.062;2022-08-19T19:44:44;9.30;;;6.13;;
40248;SDS011;25969;49.970;11.062;2022-08-19T19:54:47;9.43;;;6.63;;
40248;SDS011;25969;49.970;11.062;2022-08-19T20:04:48;9.07;;;5.77;;
40248;SDS011;25969;49.970;11.062;2022-08-19T20:14:50;10.55;;;6.70;;
40248;SDS011;25969;49.970;11.062;2022-08-19T20:24:50;10.90;;;7.00;;
40248;SDS011;25969;49.970;11.062;2022-08-19T20:34:52;9.82;;;6.82;;
40248;SDS011;25969;49.970;11.062;2022-08-19T20:44:53;12.40;;;6.20;;
40248;SDS011;25969;49.970;11.062;2022-08-19T20:54:54;6.80;;;5.93;;
40248;SDS011;25969;49.970;11.062;2022-08-19T21:04:56;9.00;;;6.00;;
40248;SDS011;25969;49.970;11.062;2022-08-19T21:14:56;7.50;;;6.33;;
40248;SDS011;25969;49.970;11.062;2022-08-19T21:24:57;9.03;;;6.07;;
40248;SDS011;25969;49.970;11.062;2022-08-19T21:34:58;8.60;;;6.43;;
40248;SDS011;25969;49.970;11.062;2022-08-19T21:44:58;9.70;;;6.40;;
